Time;durP1;ratioP1;P1;durP2;ratioP2;P2;SDS_P1;SDS_P2;PMS_P1;PMS_P2;Temp;Humidity;BMP_temperature;BMP_pressure;BME280_temperature;BME280_humidity;BME280_pressure;Samples;Min_cycle;Max_cycle;Signal;HPM_P1;HPM_P2
2022/09/01 01:14:44;;;;;;;1.40;0.90;;;16.50;99.90;;;;;;5114240;28;20508;-77
2022/09/01 01:17:12;;;;;;;3.13;1.10;;;16.50;99.90;;;;;;5118106;28;20531;-78
2022/09/01 01:25:22;;;;;;;1.43;1.03;;;16.40;99.90;;;;;;5117894;28;20427;-78
2022/09/01 01:27:50;;;;;;;2.10;1.00;;;16.40;99.90;;;;;;5117817;28;20515;-78
2022/09/01 01:30:22;;;;;;;1.33;1.00;;;16.30;99.90;;;;;;5120569;28;20578;-78
2022/09/01 01:32:50;;;;;;;2.13;1.30;;;16.30;99.90;;;;;;5120581;28;20472;-78
2022/09/01 01:35:22;;;;;;;1.50;1.20;;;16.30;99.90;;;;;;5116563;28;20788;-77
2022/09/01 01:37:50;;;;;;;1.90;1.20;;;16.30;99.90;;;;;;5117294;28;20809;-77
2022/09/01 01:40:21;;;;;;;1.53;1.20;;;16.30;99.90;;;;;;5118584;28;20452;-77
2022/09/01 01:42:52;;;;;;;2.00;1.20;;;16.20;99.90;;;;;;5118209;28;20490;-77
2022/09/01 01:45:22;;;;;;;2.50;1.50;;;16.20;99.90;;;;;;5118018;28;20809;-78
2022/09/01 01:47:51;;;;;;;2.00;1.27;;;16.20;99.90;;;;;;5117718;28;20844;-78
2022/09/01 01:50:19;;;;;;;2.80;1.50;;;16.20;99.90;;;;;;5118450;28;20452;-78
2022/09/01 01:52:46;;;;;;;3.93;1.50;;;16.20;99.90;;;;;;5118359;28;20499;-78
2022/09/01 01:55:18;;;;;;;2.13;1.37;;;16.20;99.90;;;;;;5117970;28;20488;-78
2022/09/01 01:57:48;;;;;;;2.40;1.37;;;16.20;99.90;;;;;;5118396;28;20750;-78
2022/09/01 02:00:19;;;;;;;2.17;1.30;;;16.20;99.90;;;;;;5118050;28;20451;-78
2022/09/01 02:02:51;;;;;;;1.60;1.47;;;16.20;99.90;;;;;;5118133;28;20455;-77
2022/09/01 02:05:21;;;;;;;2.70;2.50;;;16.10;99.90;;;;;;5117232;28;20450;-77
2022/09/01 02:07:48;;;;;;;2.30;1.67;;;16.10;99.90;;;;;;5115907;28;20515;-78
2022/09/01 02:10:16;;;;;;;2.90;1.50;;;16.10;99.90;;;;;;5117770;28;20509;-78
2022/09/01 02:12:43;;;;;;;1.33;1.23;;;16.00;99.90;;;;;;5117809;28;20932;-78
2022/09/01 02:15:11;;;;;;;2.70;1.87;;;16.00;99.90;;;;;;5118448;28;20468;-78
2022/09/01 02:17:42;;;;;;;2.00;1.33;;;15.90;99.90;;;;;;5117425;28;20478;-78
2022/09/01 02:20:09;;;;;;;1.50;1.30;;;15.80;99.90;;;;;;5117005;28;20532;-78
2022/09/01 02:22:38;;;;;;;3.10;1.87;;;15.70;99.90;;;;;;5117243;28;20521;-78
2022/09/01 02:25:05;;;;;;;3.93;2.20;;;15.70;99.90;;;;;;5117220;28;20462;-78
2022/09/01 02:27:38;;;;;;;3.20;2.90;;;15.60;99.90;;;;;;5118312;28;20830;-78
2022/09/01 02:30:09;;;;;;;2.47;1.43;;;15.60;99.90;;;;;;5118205;28;20440;-78
2022/09/01 02:32:37;;;;;;;2.03;1.53;;;15.60;99.90;;;;;;5121370;28;20440;-77
2022/09/01 02:35:08;;;;;;;3.10;2.27;;;15.60;99.90;;;;;;5126109;28;20456;-78
2022/09/01 02:37:38;;;;;;;1.80;1.53;;;15.50;99.90;;;;;;5125258;28;20895;-77
2022/09/01 02:40:08;;;;;;;1.60;1.10;;;15.60;99.90;;;;;;5123944;28;20508;-77
2022/09/01 02:42:39;;;;;;;2.90;1.60;;;15.50;99.90;;;;;;5123128;28;20487;-77
2022/09/01 02:45:15;;;;;;;2.30;1.30;;;15.50;99.90;;;;;;5121815;28;20450;-78
2022/09/01 02:47:47;;;;;;;1.90;1.50;;;15.50;99.90;;;;;;5122077;28;20475;-77
2022/09/01 02:50:17;;;;;;;2.00;1.30;;;15.40;99.90;;;;;;5121614;28;20445;-77
2022/09/01 02:52:47;;;;;;;1.87;1.30;;;15.40;99.90;;;;;;5121869;28;20443;-78
2022/09/01 02:55:19;;;;;;;1.70;1.20;;;15.30;99.90;;;;;;5121817;28;20521;-79
2022/09/01 02:57:47;;;;;;;1.90;1.23;;;15.20;99.90;;;;;;5124080;28;20436;-78
2022/09/01 03:00:21;;;;;;;5.60;1.30;;;15.20;99.90;;;;;;5124418;28;20513;-79
2022/09/01 03:02:51;;;;;;;1.40;1.20;;;15.10;99.90;;;;;;5124291;28;20440;-78
2022/09/01 03:05:24;;;;;;;1.60;1.50;;;15.00;99.90;;;;;;5122824;28;20979;-79
2022/09/01 03:07:55;;;;;;;1.53;1.37;;;15.00;99.90;;;;;;5122457;28;20483;-78
2022/09/01 03:10:25;;;;;;;2.20;1.57;;;14.90;99.90;;;;;;5122803;28;20775;-79
2022/09/01 03:12:53;;;;;;;2.80;1.50;;;14.90;99.90;;;;;;5122499;28;20528;-78
2022/09/01 03:15:21;;;;;;;2.07;1.60;;;14.80;99.90;;;;;;5123081;28;20460;-78
2022/09/01 03:17:48;;;;;;;2.37;1.37;;;14.80;99.90;;;;;;5122185;28;20455;-78
2022/09/01 03:20:18;;;;;;;1.60;1.27;;;14.70;99.90;;;;;;5122028;28;20453;-78
2022/09/01 03:22:47;;;;;;;2.00;1.47;;;14.80;99.90;;;;;;5121935;28;20456;-78
2022/09/01 03:25:14;;;;;;;2.57;1.93;;;14.70;99.90;;;;;;5121797;28;20525;-78
2022/09/01 03:27:41;;;;;;;4.00;1.70;;;14.70;99.90;;;;;;5121714;28;20555;-78
2022/09/01 03:30:09;;;;;;;2.73;1.87;;;14.70;99.90;;;;;;5123547;28;20791;-78
2022/09/01 03:32:36;;;;;;;1.90;1.80;;;14.60;99.90;;;;;;5123735;28;20847;-78
2022/09/01 03:35:03;;;;;;;1.97;1.70;;;14.60;99.90;;;;;;5124282;28;20473;-78
2022/09/01 03:37:30;;;;;;;1.70;1.60;;;14.60;99.90;;;;;;5123607;28;20471;-77
2022/09/01 03:39:58;;;;;;;1.90;1.63;;;14.60;99.90;;;;;;5123078;28;20464;-78
2022/09/01 03:42:28;;;;;;;3.50;1.80;;;14.50;99.90;;;;;;5122229;28;20484;-78
2022/09/01 03:44:56;;;;;;;3.53;1.90;;;14.50;99.90;;;;;;5122427;28;20460;-78
2022/09/01 03:47:23;;;;;;;3.80;3.00;;;14.40;99.90;;;;;;5122712;28;20480;-78
2022/09/01 03:49:51;;;;;;;4.00;3.50;;;14.40;99.90;;;;;;5122674;28;20476;-78
2022/09/01 03:52:18;;;;;;;5.10;4.60;;;14.40;99.90;;;;;;5122411;28;20463;-79
2022/09/01 03:54:45;;;;;;;6.67;4.00;;;14.30;99.90;;;;;;5122025;28;20873;-78
2022/09/01 03:57:13;;;;;;;3.00;2.80;;;14.30;99.90;;;;;;5122233;28;20459;-78
2022/09/01 03:59:42;;;;;;;4.20;2.60;;;14.30;99.90;;;;;;5122586;28;20481;-77
2022/09/01 04:02:09;;;;;;;6.30;2.37;;;14.30;99.90;;;;;;5124920;28;20555;-78
2022/09/01 04:04:36;;;;;;;2.10;1.90;;;14.30;99.90;;;;;;5122293;28;20912;-78
2022/09/01 04:07:03;;;;;;;2.57;2.00;;;14.30;99.90;;;;;;5124970;28;20544;-78
2022/09/01 04:09:33;;;;;;;2.67;2.27;;;14.30;99.90;;;;;;5130619;28;20476;-77
2022/09/01 04:12:00;;;;;;;3.60;2.10;;;14.20;99.90;;;;;;5132660;28;20467;-78
2022/09/01 04:14:28;;;;;;;3.43;2.00;;;14.20;99.90;;;;;;5121882;28;20472;-78
2022/09/01 04:19:41;;;;;;;2.47;2.00;;;14.10;99.90;;;;;;5121929;28;20787;-79
2022/09/01 04:22:12;;;;;;;2.10;1.90;;;14.10;99.90;;;;;;5122531;28;20463;-79
2022/09/01 04:24:41;;;;;;;4.83;3.30;;;14.00;99.90;;;;;;5123603;28;20502;-78
2022/09/01 04:27:09;;;;;;;3.27;2.60;;;14.00;99.90;;;;;;5121538;28;20477;-78
2022/09/01 04:29:38;;;;;;;4.43;2.20;;;14.00;99.90;;;;;;5121533;28;20976;-78
2022/09/01 04:32:08;;;;;;;2.43;2.23;;;14.00;99.90;;;;;;5121721;28;20521;-78
2022/09/01 04:34:38;;;;;;;4.10;2.33;;;14.00;99.90;;;;;;5119051;28;20498;-78
2022/09/01 04:37:09;;;;;;;3.60;1.80;;;14.00;99.90;;;;;;5118477;28;20520;-78
2022/09/01 04:39:37;;;;;;;5.00;2.17;;;14.00;99.90;;;;;;5118735;28;20468;-78
2022/09/01 04:42:05;;;;;;;2.90;1.90;;;13.90;99.90;;;;;;5118442;28;21004;-78
2022/09/01 04:44:32;;;;;;;2.77;2.10;;;13.90;99.90;;;;;;5118607;28;20486;-78
2022/09/01 04:47:00;;;;;;;2.40;2.10;;;13.90;99.90;;;;;;5117633;28;20517;-78
2022/09/01 04:49:32;;;;;;;2.27;2.07;;;13.90;99.90;;;;;;5118391;28;20803;-77
2022/09/01 04:52:00;;;;;;;3.77;2.30;;;13.90;99.90;;;;;;5118283;28;20453;-78
2022/09/01 04:54:27;;;;;;;2.73;2.10;;;13.90;99.90;;;;;;5123303;28;20452;-77
2022/09/01 04:56:54;;;;;;;2.30;2.10;;;13.90;99.90;;;;;;5123402;28;20899;-77
2022/09/01 04:59:25;;;;;;;8.00;3.10;;;13.90;99.90;;;;;;5124138;28;20463;-77
2022/09/01 05:01:54;;;;;;;2.50;2.30;;;13.90;99.90;;;;;;5122633;28;20441;-78
2022/09/01 05:04:26;;;;;;;2.90;2.13;;;13.90;99.90;;;;;;5125460;28;20511;-78
2022/09/01 05:06:59;;;;;;;2.90;2.27;;;13.90;99.90;;;;;;5124623;28;20448;-78
2022/09/01 05:09:27;;;;;;;2.93;2.10;;;13.90;99.90;;;;;;5117847;28;20818;-77
2022/09/01 05:11:56;;;;;;;2.87;1.90;;;13.90;99.90;;;;;;5116628;28;20488;-77
2022/09/01 05:14:24;;;;;;;3.80;2.00;;;13.90;99.90;;;;;;5116756;28;20489;-77
2022/09/01 05:16:55;;;;;;;2.60;2.30;;;13.90;99.90;;;;;;5119800;28;20456;-78
2022/09/01 05:19:27;;;;;;;2.77;2.30;;;13.90;99.90;;;;;;5118643;28;20436;-77
2022/09/01 05:21:56;;;;;;;4.83;3.73;;;13.90;99.90;;;;;;5117461;28;20536;-77
2022/09/01 05:24:28;;;;;;;4.13;2.53;;;13.90;99.90;;;;;;5118028;28;20452;-77
2022/09/01 05:26:56;;;;;;;2.70;2.37;;;13.90;99.90;;;;;;5117194;28;20440;-77
2022/09/01 05:29:26;;;;;;;4.37;2.70;;;13.90;99.90;;;;;;5116977;28;20532;-78
2022/09/01 05:31:54;;;;;;;3.40;2.47;;;13.90;99.90;;;;;;5116777;28;20502;-77
2022/09/01 05:34:25;;;;;;;4.70;2.53;;;14.00;99.90;;;;;;5117004;28;20452;-78
2022/09/01 05:36:56;;;;;;;3.20;2.90;;;14.00;99.90;;;;;;5117354;28;20527;-77
2022/09/01 05:39:23;;;;;;;5.40;2.70;;;14.00;99.90;;;;;;5116458;28;20479;-77
2022/09/01 05:41:52;;;;;;;5.97;2.90;;;14.00;99.90;;;;;;5117314;28;20457;-79
2022/09/01 05:44:21;;;;;;;2.60;2.40;;;14.00;99.90;;;;;;5116698;28;20462;-77
2022/09/01 05:46:49;;;;;;;3.63;2.67;;;14.00;99.90;;;;;;5116325;28;20457;-77
2022/09/01 05:49:17;;;;;;;2.97;2.77;;;14.00;99.90;;;;;;5116527;28;20567;-77
2022/09/01 05:51:48;;;;;;;3.63;2.83;;;14.00;99.90;;;;;;5116797;28;20484;-77
2022/09/01 05:54:17;;;;;;;11.73;4.00;;;14.10;99.90;;;;;;5116797;28;20447;-77
2022/09/01 05:56:45;;;;;;;3.40;2.50;;;14.20;99.90;;;;;;5115999;28;20456;-77
2022/09/01 05:59:13;;;;;;;4.50;2.63;;;14.20;99.90;;;;;;5116249;28;20452;-77
2022/09/01 06:01:41;;;;;;;3.10;2.80;;;14.30;99.90;;;;;;5116172;28;20453;-77
2022/09/01 06:04:09;;;;;;;4.53;2.97;;;14.30;99.90;;;;;;5116142;28;20547;-78
2022/09/01 06:06:39;;;;;;;6.03;2.97;;;14.30;99.90;;;;;;5116569;28;20510;-77
2022/09/01 06:09:09;;;;;;;3.50;2.43;;;14.40;99.90;;;;;;5119468;28;20540;-77
2022/09/01 06:11:37;;;;;;;6.80;2.50;;;14.40;99.90;;;;;;5121013;28;20460;-77
2022/09/01 06:14:04;;;;;;;4.23;2.67;;;14.50;99.90;;;;;;5120852;28;20571;-77
2022/09/01 06:16:32;;;;;;;3.27;2.97;;;14.60;99.90;;;;;;5121192;28;20486;-78
2022/09/01 06:18:59;;;;;;;3.60;2.53;;;14.60;99.90;;;;;;5120931;28;20488;-78
2022/09/01 06:21:27;;;;;;;3.50;2.40;;;14.70;99.90;;;;;;5121319;28;20535;-77
2022/09/01 06:23:57;;;;;;;3.30;2.03;;;14.80;99.90;;;;;;5121525;28;20457;-77
2022/09/01 06:26:27;;;;;;;5.00;1.97;;;14.90;99.90;;;;;;5123591;28;20486;-77
2022/09/01 06:28:57;;;;;;;3.30;2.00;;;15.00;99.90;;;;;;5124006;28;20499;-77
2022/09/01 06:31:25;;;;;;;3.27;1.90;;;15.00;99.90;;;;;;5122410;28;20858;-77
2022/09/01 06:33:52;;;;;;;5.90;4.50;;;15.10;99.90;;;;;;5122087;28;20476;-77
2022/09/01 06:36:22;;;;;;;6.70;3.03;;;15.10;99.90;;;;;;5121889;28;20456;-77
2022/09/01 06:38:50;;;;;;;5.00;2.00;;;15.20;99.90;;;;;;5120634;28;20475;-77
2022/09/01 06:41:18;;;;;;;9.40;4.07;;;15.30;99.90;;;;;;5122193;28;20462;-77
2022/09/01 06:43:45;;;;;;;3.83;2.70;;;15.40;99.90;;;;;;5121558;28;20452;-79
2022/09/01 06:46:14;;;;;;;6.40;2.90;;;15.50;99.90;;;;;;5120821;28;20515;-76
2022/09/01 06:48:45;;;;;;;3.97;3.43;;;15.50;99.90;;;;;;5121025;28;20472;-76
2022/09/01 06:51:13;;;;;;;2.70;2.10;;;15.60;99.90;;;;;;5121115;28;20849;-78
2022/09/01 06:53:39;;;;;;;4.73;1.80;;;15.70;99.90;;;;;;5121076;28;20456;-77
2022/09/01 06:56:11;;;;;;;2.90;2.27;;;15.80;99.90;;;;;;5120774;28;20484;-78
2022/09/01 06:58:40;;;;;;;8.93;2.70;;;15.80;99.90;;;;;;5119850;28;20429;-77
2022/09/01 07:01:10;;;;;;;2.93;1.60;;;16.00;99.90;;;;;;5119436;28;20456;-77
2022/09/01 07:03:39;;;;;;;2.37;1.20;;;16.00;99.90;;;;;;5120868;28;20468;-77
2022/09/01 07:06:06;;;;;;;2.43;1.50;;;16.10;99.90;;;;;;5121620;28;20482;-78
2022/09/01 07:08:38;;;;;;;1.80;1.27;;;16.10;99.90;;;;;;5122074;28;20510;-77
2022/09/01 07:11:06;;;;;;;2.20;1.73;;;16.20;99.90;;;;;;5121245;28;20742;-78
2022/09/01 07:13:35;;;;;;;3.50;2.00;;;16.20;99.90;;;;;;5121507;28;20472;-77
2022/09/01 07:16:05;;;;;;;5.00;2.20;;;16.30;99.90;;;;;;5121564;28;20456;-78
2022/09/01 07:18:33;;;;;;;2.90;2.63;;;16.30;99.90;;;;;;5119424;28;20463;-78
2022/09/01 07:21:06;;;;;;;2.17;1.50;;;16.40;99.90;;;;;;5119270;28;20525;-78
2022/09/01 07:23:33;;;;;;;1.63;1.10;;;16.50;99.90;;;;;;5120346;28;20436;-77
2022/09/01 07:26:00;;;;;;;2.43;1.40;;;16.60;99.90;;;;;;5121826;28;20456;-77
2022/09/01 07:28:31;;;;;;;1.70;1.27;;;16.60;99.90;;;;;;5120987;28;20515;-77
2022/09/01 07:30:58;;;;;;;3.00;1.30;;;16.70;99.90;;;;;;5120476;28;20437;-77
2022/09/01 07:33:29;;;;;;;2.53;1.53;;;16.80;99.90;;;;;;5120082;28;20887;-78
2022/09/01 07:35:56;;;;;;;3.50;1.97;;;16.90;99.90;;;;;;5120724;28;20472;-79
2022/09/01 07:38:27;;;;;;;3.00;1.37;;;16.90;99.90;;;;;;5120444;28;20540;-77
2022/09/01 07:40:54;;;;;;;2.90;1.60;;;16.90;99.90;;;;;;5118757;28;20700;-78
2022/09/01 07:43:25;;;;;;;1.53;1.40;;;17.00;99.90;;;;;;5119082;28;20484;-77
2022/09/01 07:45:54;;;;;;;2.97;1.47;;;17.10;99.90;;;;;;5117878;28;20452;-77
2022/09/01 07:48:23;;;;;;;2.57;1.23;;;17.10;99.90;;;;;;5118059;28;20476;-77
2022/09/01 07:50:53;;;;;;;2.40;1.37;;;17.20;99.90;;;;;;5117927;28;20492;-77
2022/09/01 07:53:22;;;;;;;6.67;1.40;;;17.30;99.90;;;;;;5117654;28;20996;-77
2022/09/01 07:55:52;;;;;;;3.43;1.10;;;17.40;99.90;;;;;;5118483;28;20803;-78
2022/09/01 07:58:21;;;;;;;6.20;1.37;;;17.40;99.90;;;;;;5118896;28;20448;-77
2022/09/01 08:00:50;;;;;;;1.50;1.20;;;17.50;99.90;;;;;;5118259;28;20459;-77
2022/09/01 08:03:18;;;;;;;2.37;1.10;;;17.50;99.90;;;;;;5117664;28;20452;-77
2022/09/01 08:05:46;;;;;;;4.17;1.30;;;17.60;99.90;;;;;;5117409;28;20521;-77
2022/09/01 08:08:13;;;;;;;2.07;1.30;;;17.60;99.90;;;;;;5118215;28;20486;-77
2022/09/01 08:10:41;;;;;;;2.20;1.20;;;17.70;99.90;;;;;;5118169;28;20749;-78
2022/09/01 08:13:10;;;;;;;3.03;1.20;;;17.70;99.90;;;;;;5120670;28;20476;-79
2022/09/01 08:15:39;;;;;;;2.43;1.10;;;17.80;99.90;;;;;;5119223;28;20537;-78
2022/09/01 08:18:06;;;;;;;1.30;1.00;;;17.80;99.90;;;;;;5118870;28;20476;-78
2022/09/01 08:20:36;;;;;;;2.83;1.20;;;17.80;99.90;;;;;;5119372;28;20548;-79
2022/09/01 08:23:03;;;;;;;1.20;0.93;;;17.90;99.90;;;;;;5118789;28;20464;-77
2022/09/01 08:25:31;;;;;;;2.37;1.73;;;17.90;99.90;;;;;;5118329;28;20474;-78
2022/09/01 08:27:58;;;;;;;1.80;1.30;;;18.00;99.90;;;;;;5117300;28;20525;-78
2022/09/01 08:30:26;;;;;;;1.97;1.00;;;18.10;99.90;;;;;;5116860;28;20638;-79
2022/09/01 08:32:53;;;;;;;1.93;1.53;;;18.20;99.90;;;;;;5118392;28;20465;-78
2022/09/01 08:35:20;;;;;;;1.40;0.90;;;18.20;99.90;;;;;;5117542;28;20449;-77
2022/09/01 08:37:47;;;;;;;2.67;1.37;;;18.30;99.90;;;;;;5116534;28;20484;-76
2022/09/01 08:40:18;;;;;;;1.53;1.17;;;18.30;99.90;;;;;;5116494;28;20531;-77
2022/09/01 08:42:56;;;;;;;2.00;1.10;;;18.30;99.90;;;;;;5116971;28;20528;-77
2022/09/01 08:45:29;;;;;;;2.07;1.10;;;18.40;99.90;;;;;;5119114;28;20467;-77
2022/09/01 08:48:02;;;;;;;2.67;1.10;;;18.50;99.90;;;;;;5119352;28;20496;-77
2022/09/01 08:50:29;;;;;;;3.73;1.10;;;18.40;99.90;;;;;;5121489;28;20464;-79
2022/09/01 08:53:02;;;;;;;7.23;1.23;;;18.50;99.90;;;;;;5120707;28;20452;-76
2022/09/01 08:55:39;;;;;;;1.83;1.20;;;18.50;99.90;;;;;;5117367;28;20472;-77
2022/09/01 08:58:09;;;;;;;1.40;1.00;;;18.60;99.90;;;;;;5117459;28;20468;-77
2022/09/01 09:00:43;;;;;;;2.70;1.70;;;18.60;99.90;;;;;;5119066;28;20488;-77
2022/09/01 09:03:20;;;;;;;2.00;1.30;;;18.70;99.90;;;;;;5118494;28;20880;-77
2022/09/01 09:05:59;;;;;;;2.70;1.00;;;18.80;99.90;;;;;;5117451;28;20436;-77
2022/09/01 09:08:54;;;;;;;1.40;0.97;;;18.90;99.90;;;;;;5116166;28;20536;-78
2022/09/01 09:11:45;;;;;;;2.13;0.90;;;18.90;99.90;;;;;;5116307;28;20825;-78
2022/09/01 09:14:24;;;;;;;2.10;1.10;;;19.00;99.90;;;;;;5116261;28;20541;-77
2022/09/01 09:16:55;;;;;;;3.50;1.30;;;19.10;99.90;;;;;;5116975;28;20437;-78
2022/09/01 09:19:26;;;;;;;4.00;1.50;;;19.20;99.90;;;;;;5118149;28;20466;-78
2022/09/01 09:21:55;;;;;;;5.40;1.30;;;19.40;99.90;;;;;;5118365;28;20488;-78
2022/09/01 09:24:28;;;;;;;2.80;0.97;;;19.40;99.90;;;;;;5118126;28;20453;-78
2022/09/01 09:26:57;;;;;;;3.20;0.93;;;19.60;99.90;;;;;;5118242;28;20437;-78
2022/09/01 09:29:24;;;;;;;5.27;0.90;;;19.70;99.90;;;;;;5117538;28;20484;-78
2022/09/01 09:32:04;;;;;;;2.23;1.30;;;19.80;99.90;;;;;;5116872;28;20460;-77
2022/09/01 09:34:34;;;;;;;5.67;1.07;;;19.90;99.90;;;;;;5120245;28;20489;-77
2022/09/01 09:37:16;;;;;;;2.10;0.80;;;20.10;99.90;;;;;;5119819;28;20459;-78
2022/09/01 09:39:43;;;;;;;1.33;0.77;;;20.20;99.90;;;;;;5120502;28;20757;-77
2022/09/01 09:42:12;;;;;;;1.30;0.90;;;20.30;99.90;;;;;;5118027;28;20774;-78
2022/09/01 09:44:44;;;;;;;1.30;1.00;;;20.30;99.90;;;;;;5117865;28;20850;-78
2022/09/01 09:47:37;;;;;;;1.63;0.90;;;20.30;99.90;;;;;;5118344;28;20817;-78
2022/09/01 09:50:29;;;;;;;4.17;0.90;;;20.40;99.90;;;;;;5117556;28;20495;-78
2022/09/01 09:53:12;;;;;;;3.93;2.40;;;20.40;99.90;;;;;;5035908;28;20452;-78
2022/09/01 09:55:55;;;;;;;2.97;1.20;;;20.60;99.90;;;;;;5034800;28;20440;-80
2022/09/01 09:58:25;;;;;;;1.40;0.90;;;20.70;99.90;;;;;;5035919;28;20917;-79
2022/09/01 10:01:13;;;;;;;1.20;0.60;;;20.80;99.90;;;;;;5035279;28;20464;-78
2022/09/01 10:03:49;;;;;;;1.60;0.80;;;20.90;99.90;;;;;;5036237;28;20460;-78
2022/09/01 10:06:31;;;;;;;1.20;0.80;;;20.90;99.90;;;;;;5034677;28;20538;-78
2022/09/01 10:08:58;;;;;;;1.33;0.70;;;21.00;99.90;;;;;;5033295;28;20547;-77
2022/09/01 10:11:29;;;;;;;1.00;0.70;;;21.10;99.90;;;;;;5034003;28;20542;-77
2022/09/01 10:13:56;;;;;;;2.87;1.10;;;21.10;99.90;;;;;;5033576;28;20678;-78
2022/09/01 10:16:29;;;;;;;1.83;1.37;;;21.20;99.90;;;;;;5033624;28;20550;-78
2022/09/01 10:19:00;;;;;;;1.40;0.80;;;21.30;99.90;;;;;;5033748;28;20447;-78
2022/09/01 10:21:34;;;;;;;2.80;1.00;;;21.40;99.90;;;;;;5032940;28;20436;-77
2022/09/01 10:24:07;;;;;;;1.47;0.87;;;21.50;99.90;;;;;;5033368;28;20516;-78
2022/09/01 10:26:38;;;;;;;1.70;1.30;;;21.70;99.90;;;;;;5035063;28;20445;-77
2022/09/01 10:29:08;;;;;;;1.80;0.90;;;21.90;99.90;;;;;;5062074;28;20512;-77
2022/09/01 10:31:36;;;;;;;1.40;0.80;;;22.00;99.90;;;;;;5115843;28;20452;-77
2022/09/01 10:34:10;;;;;;;1.40;0.73;;;22.00;99.90;;;;;;5115037;28;20470;-78
2022/09/01 10:36:38;;;;;;;6.57;1.00;;;22.10;99.90;;;;;;5115901;28;20856;-77
2022/09/01 10:39:10;;;;;;;1.70;1.20;;;22.10;99.90;;;;;;5116198;28;20544;-78
2022/09/01 10:41:52;;;;;;;1.47;0.83;;;22.20;99.90;;;;;;5118680;28;20520;-77
2022/09/01 10:44:22;;;;;;;1.13;0.70;;;22.30;99.90;;;;;;5118603;28;20437;-78
2022/09/01 10:46:50;;;;;;;1.87;0.93;;;22.40;99.90;;;;;;5117375;28;20505;-78
2022/09/01 10:49:37;;;;;;;2.27;1.33;;;22.40;99.90;;;;;;5116874;28;20562;-78
2022/09/01 10:52:04;;;;;;;2.50;0.83;;;22.40;99.90;;;;;;5098095;28;20951;-77
2022/09/01 10:54:59;;;;;;;3.60;1.40;;;22.40;99.90;;;;;;5118562;28;20491;-77
2022/09/01 10:57:46;;;;;;;2.50;0.83;;;22.50;99.90;;;;;;5119893;28;20461;-78
2022/09/01 11:00:51;;;;;;;2.50;0.80;;;22.50;99.90;;;;;;5124129;28;20433;-77
2022/09/01 11:03:50;;;;;;;2.33;1.57;;;22.40;99.90;;;;;;5120847;28;20479;-77
2022/09/01 11:06:54;;;;;;;2.53;1.57;;;22.30;99.90;;;;;;5120559;28;20445;-77
2022/09/01 11:09:27;;;;;;;1.40;0.93;;;22.20;99.90;;;;;;5119846;28;20577;-77
2022/09/01 11:12:18;;;;;;;1.33;1.03;;;22.10;99.90;;;;;;5121910;28;20468;-77
2022/09/01 11:14:50;;;;;;;4.90;3.20;;;22.10;99.90;;;;;;5120918;28;20579;-78
2022/09/01 11:17:21;;;;;;;2.67;1.20;;;22.20;99.90;;;;;;5122822;28;20484;-77
2022/09/01 11:19:56;;;;;;;10.23;8.40;;;22.20;99.90;;;;;;5119830;28;20472;-76
2022/09/01 11:22:28;;;;;;;1.90;1.27;;;22.20;99.90;;;;;;5120949;28;20450;-78
2022/09/01 11:25:33;;;;;;;3.77;1.10;;;22.30;99.90;;;;;;5120458;28;20465;-77
2022/09/01 11:28:09;;;;;;;1.53;1.20;;;22.30;99.90;;;;;;5120651;28;20501;-77
2022/09/01 11:30:49;;;;;;;1.40;1.17;;;22.40;99.90;;;;;;5120293;28;20850;-77
2022/09/01 11:33:28;;;;;;;2.63;2.43;;;22.50;99.90;;;;;;5121716;28;20505;-77
2022/09/01 11:36:00;;;;;;;2.20;1.30;;;22.90;99.90;;;;;;5118938;28;20440;-78
2022/09/01 11:38:32;;;;;;;1.80;0.90;;;23.50;99.50;;;;;;5118601;28;20490;-77
2022/09/01 11:40:59;;;;;;;2.80;1.20;;;24.20;96.30;;;;;;5118085;28;20445;-77
2022/09/01 11:43:26;;;;;;;1.57;0.60;;;25.10;92.50;;;;;;5117583;28;20507;-77
2022/09/01 11:46:05;;;;;;;2.07;1.70;;;26.10;88.70;;;;;;5117767;28;20548;-79
2022/09/01 11:48:33;;;;;;;1.40;0.90;;;26.50;79.30;;;;;;5117279;28;20447;-77
2022/09/01 11:51:02;;;;;;;1.20;0.90;;;26.30;73.10;;;;;;5118368;28;20477;-77
2022/09/01 11:53:32;;;;;;;2.47;1.10;;;26.10;71.80;;;;;;5117904;28;20547;-77
2022/09/01 11:56:14;;;;;;;1.63;0.80;;;25.70;72.20;;;;;;5118238;28;20452;-77
2022/09/01 11:58:40;;;;;;;2.03;1.27;;;25.20;70.60;;;;;;5118773;28;20432;-76
2022/09/01 12:01:19;;;;;;;1.50;1.10;;;24.70;71.10;;;;;;5117747;28;20491;-78
2022/09/01 12:03:47;;;;;;;1.60;1.30;;;24.30;71.70;;;;;;5117300;28;20441;-76
2022/09/01 12:06:28;;;;;;;2.27;2.07;;;24.00;74.00;;;;;;5117550;28;20521;-77
2022/09/01 12:08:58;;;;;;;1.30;1.10;;;23.80;78.10;;;;;;5118133;28;20432;-76
2022/09/01 12:11:29;;;;;;;1.27;0.90;;;23.80;80.00;;;;;;5117518;28;20566;-76
2022/09/01 12:14:01;;;;;;;1.40;0.97;;;23.70;85.00;;;;;;5117054;28;20495;-76
2022/09/01 12:16:29;;;;;;;2.07;0.90;;;23.60;87.70;;;;;;5117181;28;20440;-77
2022/09/01 12:18:58;;;;;;;1.60;1.27;;;23.40;87.50;;;;;;5117000;28;20456;-77
2022/09/01 12:21:28;;;;;;;1.60;1.40;;;23.30;90.10;;;;;;5116532;28;20518;-77
2022/09/01 12:24:11;;;;;;;4.33;1.20;;;23.20;90.90;;;;;;5116980;28;20494;-77
2022/09/01 12:26:39;;;;;;;9.07;2.10;;;23.10;90.40;;;;;;5116732;28;20468;-77
2022/09/01 12:29:06;;;;;;;1.30;0.90;;;23.10;91.90;;;;;;5116889;28;20846;-77
2022/09/01 12:31:34;;;;;;;3.60;1.87;;;23.00;90.90;;;;;;5117302;28;20484;-76
2022/09/01 12:34:03;;;;;;;1.60;1.40;;;22.90;92.10;;;;;;5117458;28;20587;-77
2022/09/01 12:36:32;;;;;;;6.77;1.50;;;22.90;92.40;;;;;;5117142;28;20463;-77
2022/09/01 12:39:20;;;;;;;1.63;1.53;;;22.80;93.40;;;;;;5117027;28;20483;-77
2022/09/01 12:42:00;;;;;;;3.03;1.67;;;22.80;93.10;;;;;;5117291;28;20441;-78
2022/09/01 12:44:29;;;;;;;4.43;1.43;;;22.90;93.20;;;;;;5117287;28;20456;-78
2022/09/01 12:46:57;;;;;;;4.90;4.30;;;23.00;92.20;;;;;;5117823;28;20503;-77
2022/09/01 12:49:27;;;;;;;2.83;2.23;;;23.10;92.60;;;;;;5117118;28;20529;-77
2022/09/01 12:52:10;;;;;;;4.73;3.80;;;23.20;92.90;;;;;;5116727;28;20552;-77
2022/09/01 12:54:39;;;;;;;1.10;0.80;;;23.50;95.60;;;;;;5117327;28;20885;-77
2022/09/01 12:57:07;;;;;;;1.40;1.20;;;24.70;91.20;;;;;;5116733;28;20947;-77
2022/09/01 12:59:34;;;;;;;1.27;0.83;;;26.20;90.50;;;;;;5116659;28;20997;-77
2022/09/01 13:02:28;;;;;;;1.93;1.00;;;28.10;82.70;;;;;;5116530;28;20500;-77
2022/09/01 13:04:55;;;;;;;3.17;1.30;;;30.20;65.10;;;;;;5116696;28;20515;-76
2022/09/01 13:07:22;;;;;;;3.53;0.80;;;31.50;56.60;;;;;;5116748;28;20502;-76
2022/09/01 13:09:50;;;;;;;2.07;1.17;;;31.80;51.40;;;;;;5116201;28;20491;-76
2022/09/01 13:12:19;;;;;;;3.40;3.07;;;31.80;49.30;;;;;;5111044;28;20512;-77
2022/09/01 13:14:46;;;;;;;2.20;1.00;;;31.40;47.10;;;;;;5095874;28;20481;-76
2022/09/01 13:17:13;;;;;;;1.50;0.90;;;30.60;46.90;;;;;;5095190;28;20955;-76
2022/09/01 13:19:40;;;;;;;1.93;1.20;;;29.80;46.60;;;;;;5096294;28;20453;-76
2022/09/01 13:22:07;;;;;;;4.27;1.30;;;28.80;48.80;;;;;;5100932;28;20500;-78
2022/09/01 13:24:34;;;;;;;2.10;1.90;;;28.10;49.90;;;;;;5096712;28;20611;-76
2022/09/01 13:27:03;;;;;;;1.50;1.40;;;27.60;51.50;;;;;;5096346;28;20501;-76
2022/09/01 13:29:30;;;;;;;3.27;1.37;;;27.10;51.90;;;;;;5095955;28;20453;-76
2022/09/01 13:31:57;;;;;;;3.07;1.00;;;26.60;52.20;;;;;;5096378;28;20514;-77
2022/09/01 13:34:24;;;;;;;1.70;1.10;;;26.10;54.00;;;;;;5097730;28;20461;-76
2022/09/01 13:36:51;;;;;;;1.80;1.20;;;25.80;54.90;;;;;;5097156;28;20485;-76
2022/09/01 13:39:18;;;;;;;3.60;2.00;;;25.40;55.90;;;;;;5096915;28;20783;-77
2022/09/01 13:41:45;;;;;;;2.63;2.10;;;25.00;57.30;;;;;;5095581;28;20540;-76
2022/09/01 13:44:14;;;;;;;4.10;3.13;;;24.70;58.40;;;;;;5095918;28;20513;-76
2022/09/01 13:46:41;;;;;;;2.83;1.77;;;24.30;58.80;;;;;;5096603;28;20453;-76
2022/09/01 13:49:08;;;;;;;1.90;1.60;;;24.00;59.40;;;;;;5095072;28;20449;-77
2022/09/01 13:51:36;;;;;;;1.60;0.90;;;23.80;60.80;;;;;;5095684;28;20476;-77
2022/09/01 13:54:03;;;;;;;1.60;1.30;;;23.70;60.40;;;;;;5095499;28;20457;-77
2022/09/01 13:56:30;;;;;;;3.00;1.10;;;23.60;61.40;;;;;;5094978;28;20463;-77
2022/09/01 13:58:57;;;;;;;2.67;1.37;;;23.60;62.10;;;;;;5095085;28;20552;-77
2022/09/01 14:01:25;;;;;;;3.53;1.60;;;23.60;63.30;;;;;;5095228;28;20549;-77
2022/09/01 14:03:52;;;;;;;3.73;1.90;;;23.60;63.90;;;;;;5095287;28;20481;-78
2022/09/01 14:06:20;;;;;;;2.40;1.40;;;23.70;64.50;;;;;;5095106;28;20463;-77
2022/09/01 14:08:47;;;;;;;11.17;2.27;;;23.60;64.10;;;;;;5095155;28;20548;-77
2022/09/01 14:11:18;;;;;;;3.33;1.73;;;23.70;65.80;;;;;;5095439;28;20449;-77
2022/09/01 14:13:45;;;;;;;2.00;1.03;;;23.80;65.20;;;;;;5096711;28;20503;-78
2022/09/01 14:16:13;;;;;;;4.40;2.90;;;23.90;63.50;;;;;;5096457;28;20453;-78
2022/09/01 14:18:42;;;;;;;2.97;2.07;;;23.90;65.80;;;;;;5097747;28;20600;-77
2022/09/01 14:21:13;;;;;;;1.80;1.40;;;24.00;66.20;;;;;;5095523;28;20568;-77
2022/09/01 14:23:40;;;;;;;3.70;2.20;;;24.00;63.20;;;;;;5096352;28;20441;-77
2022/09/01 14:26:10;;;;;;;4.63;4.17;;;24.10;63.60;;;;;;5096036;28;20944;-76